Hauptseite
METAR-TAF:

METAR-TAF

Flughäfen :

Golovin, Alaska, Vereinigte Staaten

Breite: 64-32-36N, Länge: 163-02-22W, Höhe: 8 m

Beobachtung

Neuester Wetterbericht von vor 25 Minuten, um 05:56 UTC
Wind 5 kt aus Nord
Temperatur -22°C
Luftfeuchtigkeit 70%
Luftdruck 1021 hPa
Sichtweite: 16.1 km
Himmel klar

METAR: PAGL 280556Z AUTO 35005KT 10SM CLR M22/M26 A3014 RMK AO2 SLP203 T12221261 11172 21228 50008 FZRANO

Zeit: 21:21 (06:21 UTC)


TAF: fehlend

Wetterbeobachtungen und Prognosen von mehr als 4000 Flughäfen (METAR und TAF Bericht).

Die verfügbaren Stationen werden durch gelbe und rote Markierungen auf der Karte dargestellt.

Führen Sie die Maus auf sie, um den Namen der Station zu sehen.

Darauf klicken, um die Beobachtung von Wetterbeobachtungen und Prognosen zu sehen.

Um die Karte zu ändern : klicken Sie auf den grünen Tasten mit einem schwarzen Kreuz Zum Vergrößern, auf den grünen Button mit einem Gedankenstrich zu verkleinern, oder auf die grünen Pfeile für benachbarte Karten.


METAR-TAF: